Time;durP1;ratioP1;P1;durP2;ratioP2;P2;SDS_P1;SDS_P2;PMS_P1;PMS_P2;Temp;Humidity;BMP_temperature;BMP_pressure;BME280_temperature;BME280_humidity;BME280_pressure;Samples;Min_cycle;Max_cycle;Signal;HPM_P1;HPM_P2
2023/04/14 00:01:18;;;;;;;;;;;12.40;45.50;;;11.26;47.33;100472.66;12252543;19;19930;-82
2023/04/14 00:05:20;;;;;;;;;;;12.40;45.50;;;11.24;47.20;100466.72;12250364;19;20277;-84
2023/04/14 00:09:21;;;;;;;;;;;12.40;45.60;;;11.21;47.47;100466.91;12250553;19;19915;-83
2023/04/14 00:13:23;;;;;;;;;;;12.40;45.60;;;11.24;47.50;100488.47;12252864;19;19919;-82
2023/04/14 00:17:24;;;;;;;;;;;12.50;45.70;;;11.20;47.21;100486.13;12250443;19;19911;-82
2023/04/14 00:21:26;;;;;;;;;;;12.40;45.60;;;11.12;47.28;100476.13;12251637;19;19956;-83
2023/04/14 00:25:27;;;;;;;;;;;12.30;45.70;;;11.12;47.47;100488.38;12249423;19;19940;-82
2023/04/14 00:29:29;;;;;;;;;;;12.30;45.70;;;11.10;47.45;100487.63;12252460;19;19918;-82
2023/04/14 00:33:30;;;;;;;;;;;12.30;45.80;;;11.10;47.56;100495.47;12251534;19;19932;-83
2023/04/14 00:37:32;;;;;;;;;;;12.30;45.80;;;11.07;47.61;100497.34;12248513;19;19926;-83
2023/04/14 00:41:35;;;;;;;;;;;12.30;45.80;;;11.08;47.67;100504.25;12252645;19;19933;-82
2023/04/14 00:45:42;;;;;;;;;;;12.40;45.90;;;11.03;47.54;100490.59;12249607;19;19915;-83
2023/04/14 00:49:44;;;;;;;;;;;12.30;45.90;;;10.97;47.59;100485.78;12250703;19;19910;-82
2023/04/14 00:53:46;;;;;;;;;;;12.30;45.90;;;10.93;47.76;100467.75;12250562;19;20222;-83
2023/04/14 00:57:47;;;;;;;;;;;12.30;45.90;;;11.11;47.71;100491.94;12247911;19;20237;-83
2023/04/14 01:01:49;;;;;;;;;;;12.30;46.10;;;10.97;47.62;100461.41;12248840;19;19922;-83
2023/04/14 01:05:53;;;;;;;;;;;12.30;46.00;;;11.07;47.81;100479.06;12246868;19;19926;-82
2023/04/14 01:09:56;;;;;;;;;;;12.30;46.00;;;11.07;47.84;100492.13;12249548;19;19947;-83
2023/04/14 01:14:20;;;;;;;;;;;12.30;46.30;;;11.17;47.75;100497.59;12249452;19;19919;-83
2023/04/14 01:18:38;;;;;;;;;;;12.30;46.20;;;11.16;47.94;100493.31;12245836;19;19922;-83
2023/04/14 01:22:47;;;;;;;;;;;12.30;46.20;;;10.81;47.84;100449.28;12247820;19;19922;-82
2023/04/14 01:27:00;;;;;;;;;;;12.30;46.60;;;10.79;47.90;100435.47;12246199;19;19936;-83
2023/04/14 01:31:21;;;;;;;;;;;12.30;46.70;;;11.12;47.70;100509.28;12247785;19;19919;-83
2023/04/14 01:35:33;;;;;;;;;;;12.30;46.70;;;11.04;48.06;100484.47;12248225;19;20329;-83
2023/04/14 01:39:41;;;;;;;;;;;12.30;46.60;;;11.08;47.95;100493.78;12243929;19;19923;-83
2023/04/14 01:43:45;;;;;;;;;;;12.30;46.90;;;11.06;48.02;100489.59;12247128;19;19919;-83
2023/04/14 01:47:47;;;;;;;;;;;12.30;46.50;;;11.10;47.83;100495.47;12245483;19;20345;-83
2023/04/14 01:51:49;;;;;;;;;;;12.30;46.50;;;10.92;48.04;100471.31;12247706;19;19911;-83
2023/04/14 01:55:52;;;;;;;;;;;12.30;46.40;;;10.94;47.98;100470.28;12244027;19;19919;-83
2023/04/14 01:59:55;;;;;;;;;;;12.30;46.50;;;10.95;47.86;100465.88;12248016;19;20351;-83
2023/04/14 02:03:58;;;;;;;;;;;12.30;46.50;;;11.13;48.08;100498.75;12248137;19;19922;-83
2023/04/14 02:08:02;;;;;;;;;;;12.30;46.60;;;11.06;48.06;100500.88;12248979;19;19915;-83
2023/04/14 02:12:05;;;;;;;;;;;12.30;46.60;;;11.13;48.12;100503.13;12247111;19;19911;-83
2023/04/14 02:16:09;;;;;;;;;;;12.30;46.60;;;11.11;48.07;100505.00;12243092;19;19994;-83
2023/04/14 02:20:12;;;;;;;;;;;12.30;46.50;;;11.13;48.12;100511.81;12246345;19;19919;-84
2023/04/14 02:24:16;;;;;;;;;;;12.30;46.50;;;10.99;48.17;100483.03;12244535;19;19914;-83
2023/04/14 02:28:20;;;;;;;;;;;12.40;46.50;;;11.08;48.23;100495.56;12244628;19;19923;-82
2023/04/14 02:32:25;;;;;;;;;;;12.40;46.50;;;11.15;48.07;100519.53;12250072;19;19918;-82
2023/04/14 02:36:33;;;;;;;;;;;12.40;46.30;;;11.06;48.27;100515.72;12257019;19;19923;-83
2023/04/14 02:40:37;;;;;;;;;;;12.40;46.40;;;11.10;48.08;100525.06;12258252;19;20321;-82
2023/04/14 02:44:59;;;;;;;;;;;12.40;46.30;;;11.03;48.28;100515.91;12254372;19;19929;-82
2023/04/14 02:49:04;;;;;;;;;;;12.40;46.50;;;11.05;48.33;100511.44;12252593;19;20334;-83
2023/04/14 02:53:08;;;;;;;;;;;12.40;46.40;;;11.13;48.15;100531.88;12256844;19;19931;-83
2023/04/14 02:57:11;;;;;;;;;;;12.40;46.40;;;10.80;48.28;100478.09;12253495;19;19918;-83
2023/04/14 03:01:17;;;;;;;;;;;12.40;46.50;;;11.16;48.39;100529.06;12256430;19;20242;-82
2023/04/14 03:05:20;;;;;;;;;;;12.40;46.60;;;10.86;48.29;100472.53;12252544;19;19932;-83
2023/04/14 03:09:39;;;;;;;;;;;12.40;47.00;;;11.00;48.26;100508.25;12257526;19;20399;-83
2023/04/14 03:13:42;;;;;;;;;;;12.40;46.70;;;11.05;48.25;100520.09;12256910;19;19943;-82
2023/04/14 03:17:47;;;;;;;;;;;12.30;46.80;;;11.03;48.40;100511.50;12255339;19;19926;-82
2023/04/14 03:21:50;;;;;;;;;;;12.30;46.80;;;10.97;48.34;100500.59;12255723;19;20262;-83
2023/04/14 03:25:52;;;;;;;;;;;12.30;47.00;;;11.00;48.21;100518.72;12254078;19;19915;-83
2023/04/14 03:30:03;;;;;;;;;;;12.30;47.10;;;11.06;48.23;100532.22;12254848;19;19938;-83
2023/04/14 03:34:07;;;;;;;;;;;12.30;47.40;;;10.88;48.37;100501.16;12254607;19;19922;-83
2023/04/14 03:38:15;;;;;;;;;;;12.30;47.20;;;10.81;48.37;100485.00;12250668;19;19922;-82
2023/04/14 03:42:21;;;;;;;;;;;12.20;46.90;;;10.72;48.36;100457.69;12253756;19;19911;-83
2023/04/14 03:46:25;;;;;;;;;;;12.20;47.00;;;10.93;48.60;100491.25;12252700;19;19934;-82
2023/04/14 03:50:31;;;;;;;;;;;12.30;47.20;;;11.02;48.46;100515.06;12253807;19;19935;-82
2023/04/14 03:54:35;;;;;;;;;;;12.30;47.20;;;10.98;48.41;100500.50;12257571;19;19911;-83
2023/04/14 03:58:38;;;;;;;;;;;12.20;47.20;;;10.95;48.45;100495.47;12252559;19;19915;-83
2023/04/14 04:02:41;;;;;;;;;;;12.30;47.20;;;10.96;48.42;100488.47;12255556;19;19948;-83
2023/04/14 04:06:45;;;;;;;;;;;12.30;47.10;;;11.04;48.42;100497.53;12252547;19;19922;-83
2023/04/14 04:10:47;;;;;;;;;;;12.30;47.10;;;10.90;48.41;100471.38;12254186;19;20354;-84
2023/04/14 04:14:49;;;;;;;;;;;12.30;47.20;;;11.04;48.50;100497.53;12254529;19;19922;-83
2023/04/14 04:18:52;;;;;;;;;;;12.40;47.30;;;10.96;48.54;100476.22;12248349;19;19915;-83
2023/04/14 04:23:01;;;;;;;;;;;12.30;47.20;;;11.04;48.62;100497.53;12247637;19;20279;-83
2023/04/14 04:27:04;;;;;;;;;;;12.30;47.20;;;11.00;48.59;100482.97;12252239;19;19923;-83
2023/04/14 04:31:08;;;;;;;;;;;12.30;47.10;;;11.11;48.70;100507.59;12249023;19;20521;-84
2023/04/14 04:35:11;;;;;;;;;;;12.40;47.10;;;11.02;48.84;100481.09;12250607;19;19990;-84
2023/04/14 04:39:14;;;;;;;;;;;12.50;47.20;;;11.08;48.66;100493.78;12251229;19;20529;-83
2023/04/14 04:43:18;;;;;;;;;;;12.40;47.20;;;11.06;48.58;100500.88;12253963;19;20282;-83
2023/04/14 04:47:20;;;;;;;;;;;12.40;47.20;;;11.00;48.71;100469.06;12252824;19;19982;-84
2023/04/14 04:51:21;;;;;;;;;;;12.40;47.20;;;11.12;48.83;100483.97;12255070;19;19935;-83
2023/04/14 04:55:23;;;;;;;;;;;12.40;47.10;;;10.91;48.73;100448.72;12251496;19;19911;-83
2023/04/14 04:59:24;;;;;;;;;;;12.40;47.10;;;11.16;48.72;100482.03;12252050;19;19926;-83
2023/04/14 05:03:26;;;;;;;;;;;12.40;47.10;;;11.15;48.82;100483.81;12254090;19;19941;-84
2023/04/14 05:07:27;;;;;;;;;;;12.50;47.10;;;11.21;49.03;100482.59;12249939;19;19919;-84
2023/04/14 05:11:30;;;;;;;;;;;12.50;47.10;;;11.03;48.88;100456.66;12253264;19;19915;-84
2023/04/14 05:15:32;;;;;;;;;;;12.50;47.10;;;11.10;48.82;100469.31;12252193;19;19918;-84
2023/04/14 05:19:33;;;;;;;;;;;12.50;47.10;;;11.12;48.92;100472.69;12253937;19;19951;-84
2023/04/14 05:23:36;;;;;;;;;;;12.50;47.20;;;11.19;48.83;100485.28;12250054;19;19911;-83
2023/04/14 05:27:38;;;;;;;;;;;12.50;47.20;;;10.92;49.10;100447.78;12249748;19;19923;-84
2023/04/14 05:31:40;;;;;;;;;;;12.50;47.20;;;11.23;48.86;100494.63;12253860;19;19919;-84
2023/04/14 05:35:43;;;;;;;;;;;12.50;47.20;;;11.23;49.11;100491.16;12248468;19;19943;-83
2023/04/14 05:39:44;;;;;;;;;;;12.50;47.20;;;11.25;49.03;100500.59;12253803;19;19919;-83
2023/04/14 05:43:46;;;;;;;;;;;12.50;47.20;;;11.22;48.90;100485.09;12250710;19;19923;-83
2023/04/14 05:47:47;;;;;;;;;;;12.60;47.30;;;11.19;49.04;100474.00;12251891;19;19922;-83
2023/04/14 05:51:49;;;;;;;;;;;12.60;47.20;;;11.16;49.03;100482.88;12252104;19;20239;-83
2023/04/14 05:55:51;;;;;;;;;;;12.50;47.20;;;11.25;48.91;100487.50;12252564;19;19915;-83
2023/04/14 05:59:52;;;;;;;;;;;12.60;47.30;;;11.21;48.97;100486.03;12250023;19;19925;-83
2023/04/14 06:03:54;;;;;;;;;;;12.60;47.20;;;11.29;49.12;100496.03;12251708;19;19943;-83
2023/04/14 06:07:56;;;;;;;;;;;12.60;47.30;;;11.12;49.13;100459.63;12253084;19;19958;-84
2023/04/14 06:11:57;;;;;;;;;;;12.70;47.40;;;11.27;49.03;100490.06;12257800;19;20400;-85
2023/04/14 06:15:59;;;;;;;;;;;12.60;47.30;;;11.37;49.03;100512.06;12264813;19;19922;-84
2023/04/14 06:20:02;;;;;;;;;;;12.70;47.30;;;11.40;49.21;100513.66;12262632;19;19923;-83
2023/04/14 06:24:03;;;;;;;;;;;12.70;47.30;;;11.37;49.19;100509.47;12258828;19;19923;-83
2023/04/14 06:28:04;;;;;;;;;;;12.70;47.40;;;11.40;49.32;100513.66;12258614;19;19919;-83
2023/04/14 06:32:06;;;;;;;;;;;12.70;47.40;;;11.45;49.00;100527.25;12257557;19;20404;-85
2023/04/14 06:36:07;;;;;;;;;;;12.70;47.40;;;11.35;49.14;100508.72;12260317;19;19927;-84
2023/04/14 06:40:09;;;;;;;;;;;12.70;47.40;;;11.41;49.23;100516.16;12258136;19;19918;-83
2023/04/14 06:44:11;;;;;;;;;;;12.80;47.50;;;11.49;49.14;100520.91;12259514;19;20349;-83
2023/04/14 06:48:14;;;;;;;;;;;12.80;47.60;;;11.48;49.38;100517.47;12262269;19;19921;-83
2023/04/14 06:52:15;;;;;;;;;;;12.80;47.60;;;11.47;49.19;100509.72;12261942;19;19923;-84
2023/04/14 06:56:17;;;;;;;;;;;12.90;47.60;;;11.52;49.35;100521.56;12261034;19;19971;-83
2023/04/14 07:00:19;;;;;;;;;;;12.90;47.60;;;11.52;49.35;100518.13;12264267;19;20645;-83
2023/04/14 07:04:21;;;;;;;;;;;12.90;47.70;;;11.59;49.17;100529.03;12258926;19;19923;-84
2023/04/14 07:08:23;;;;;;;;;;;12.90;47.80;;;11.60;49.33;100526.31;12261510;19;19922;-83
2023/04/14 07:12:24;;;;;;;;;;;12.90;47.80;;;11.52;49.32;100503.25;12261290;19;19927;-83
2023/04/14 07:16:26;;;;;;;;;;;12.90;47.90;;;11.63;49.46;100517.44;12250275;19;19918;-84
2023/04/14 07:20:28;;;;;;;;;;;12.90;48.00;;;11.60;49.33;100507.19;12254162;19;20357;-82
2023/04/14 07:24:30;;;;;;;;;;;12.80;48.10;;;11.65;49.51;100512.97;12250891;19;19986;-83
2023/04/14 07:28:31;;;;;;;;;;;12.90;48.10;;;11.62;49.38;100507.94;12251238;19;19921;-84
2023/04/14 07:32:33;;;;;;;;;;;13.00;48.10;;;11.70;49.38;100516.97;12253307;19;19915;-82
2023/04/14 07:36:35;;;;;;;;;;;13.00;48.20;;;11.66;49.37;100510.22;12252680;19;19925;-83
2023/04/14 07:40:36;;;;;;;;;;;13.00;48.30;;;11.72;49.44;100525.56;12253623;19;19923;-84
2023/04/14 07:44:38;;;;;;;;;;;13.00;48.30;;;11.48;49.61;100488.72;12251566;19;20265;-82
2023/04/14 07:48:40;;;;;;;;;;;13.00;48.20;;;11.74;49.56;100526.28;12250195;19;20294;-82
2023/04/14 07:52:42;;;;;;;;;;;13.00;48.30;;;11.70;49.65;100516.97;12255610;19;19929;-83
2023/04/14 07:56:43;;;;;;;;;;;13.10;48.30;;;11.79;49.69;100531.22;12249623;19;19930;-82
2023/04/14 08:00:45;;;;;;;;;;;13.10;48.50;;;11.78;49.60;100520.88;12252242;19;19911;-82
2023/04/14 08:04:47;;;;;;;;;;;13.20;48.50;;;11.86;49.49;100526.50;12248958;19;19922;-83
2023/04/14 08:08:49;;;;;;;;;;;13.10;48.60;;;11.72;49.74;100509.88;12246349;19;19923;-83
2023/04/14 08:12:51;;;;;;;;;;;13.10;48.60;;;11.87;49.54;100523.75;12250344;19;19943;-82
2023/04/14 08:16:53;;;;;;;;;;;13.10;48.60;;;11.87;49.70;100515.91;12243488;19;20344;-84
2023/04/14 08:20:54;;;;;;;;;;;13.10;48.50;;;11.90;49.77;100517.50;12251183;19;19922;-83
2023/04/14 08:24:56;;;;;;;;;;;13.20;48.60;;;11.88;49.77;100517.63;12249101;19;19926;-82
2023/04/14 08:28:57;;;;;;;;;;;13.20;48.90;;;11.83;49.67;100498.72;12246553;19;19923;-83
2023/04/14 08:32:58;;;;;;;;;;;13.20;48.80;;;11.89;49.75;100500.97;12248309;19;19933;-83
2023/04/14 08:37:00;;;;;;;;;;;13.20;49.00;;;11.89;49.74;100500.13;12248470;19;19915;-83
2023/04/14 08:41:08;;;;;;;;;;;13.20;48.80;;;11.88;49.92;100494.06;12245578;19;20220;-82
2023/04/14 08:45:10;;;;;;;;;;;13.20;49.10;;;11.81;49.79;100477.03;12249769;19;19919;-82
2023/04/14 08:49:20;;;;;;;;;;;13.20;49.20;;;11.90;49.88;100497.41;12245193;19;19922;-82
2023/04/14 08:53:23;;;;;;;;;;;13.20;49.30;;;11.73;49.85;100455.75;12246899;19;19923;-82
2023/04/14 08:57:25;;;;;;;;;;;13.20;49.40;;;11.83;49.98;100477.78;12245839;19;19911;-82
2023/04/14 09:01:28;;;;;;;;;;;13.20;49.20;;;11.92;49.84;100498.16;12249008;19;19978;-82
2023/04/14 09:05:30;;;;;;;;;;;13.20;49.00;;;11.83;49.79;100485.63;12242352;19;19939;-83
2023/04/14 09:09:32;;;;;;;;;;;13.20;49.10;;;11.88;49.80;100488.84;12245762;19;19926;-82
2023/04/14 09:13:34;;;;;;;;;;;13.20;49.60;;;11.73;50.11;100468.84;12244121;19;20634;-82
2023/04/14 09:17:36;;;;;;;;;;;13.30;49.80;;;11.73;49.97;100474.91;12240111;19;19919;-82
2023/04/14 09:21:39;;;;;;;;;;;13.10;49.40;;;11.65;49.89;100455.41;12246005;19;19910;-83
2023/04/14 09:25:41;;;;;;;;;;;13.10;49.90;;;11.83;50.00;100488.25;12243267;19;19930;-83
2023/04/14 09:29:43;;;;;;;;;;;13.10;50.50;;;11.73;49.95;100474.91;12246452;19;19925;-82
2023/04/14 09:33:48;;;;;;;;;;;13.10;49.80;;;11.87;50.16;100492.38;12245613;19;19919;-82
2023/04/14 09:37:50;;;;;;;;;;;13.10;49.60;;;11.89;50.06;100502.75;12242805;19;19922;-82
2023/04/14 09:41:52;;;;;;;;;;;13.10;49.80;;;11.78;50.11;100474.63;12252426;19;19927;-83
2023/04/14 09:45:54;;;;;;;;;;;13.10;49.70;;;11.80;50.18;100478.00;12252067;19;19919;-82
2023/04/14 09:50:04;;;;;;;;;;;13.20;49.90;;;11.86;49.99;100485.47;12256801;19;19933;-82
2023/04/14 09:54:05;;;;;;;;;;;13.10;50.10;;;11.87;50.09;100481.06;12256426;19;19923;-82
2023/04/14 09:58:08;;;;;;;;;;;13.10;49.90;;;11.88;50.11;100478.38;12241599;19;19929;-82
2023/04/14 10:02:10;;;;;;;;;;;13.10;50.40;;;11.80;50.33;100462.28;12253046;19;19918;-82
2023/04/14 10:06:16;;;;;;;;;;;13.10;51.00;;;11.89;50.12;100476.59;12241570;19;19958;-82
2023/04/14 10:10:17;;;;;;;;;;;13.10;50.30;;;11.85;50.13;100469.81;12254973;19;20257;-82
2023/04/14 10:14:19;;;;;;;;;;;13.10;50.80;;;11.51;50.34;100417.06;12255866;19;19918;-82
2023/04/14 10:18:20;;;;;;;;;;;13.10;50.60;;;11.84;50.38;100482.06;12252039;19;19919;-82
2023/04/14 10:22:22;;;;;;;;;;;13.10;51.00;;;11.86;50.50;100479.41;12256116;19;19910;-82
2023/04/14 10:26:24;;;;;;;;;;;13.10;50.30;;;11.76;50.44;100447.72;12255043;19;19935;-83
2023/04/14 10:30:26;;;;;;;;;;;13.10;50.20;;;11.88;50.32;100469.66;12260522;19;19919;-82
2023/04/14 10:34:31;;;;;;;;;;;13.10;50.40;;;11.88;50.31;100470.50;12255395;19;19936;-82
2023/04/14 10:38:45;;;;;;;;;;;13.10;50.30;;;11.82;50.44;100447.31;12240455;19;19923;-83
2023/04/14 10:42:51;;;;;;;;;;;13.10;51.20;;;11.92;50.44;100466.75;12251126;19;19978;-82
2023/04/14 10:46:58;;;;;;;;;;;13.10;51.00;;;11.76;50.45;100447.72;12258151;19;20234;-83
2023/04/14 10:51:02;;;;;;;;;;;13.10;51.30;;;11.87;50.65;100460.97;12256195;19;20296;-83
2023/04/14 10:55:08;;;;;;;;;;;13.10;50.40;;;11.83;50.41;100454.25;12259204;19;19963;-83
2023/04/14 10:59:12;;;;;;;;;;;13.10;51.10;;;11.85;50.42;100465.41;12256156;19;19922;-84
2023/04/14 11:03:16;;;;;;;;;;;13.10;51.30;;;11.60;50.68;100421.69;12259570;19;19911;-82
2023/04/14 11:07:20;;;;;;;;;;;13.10;50.70;;;11.87;50.52;100457.53;12257697;19;19919;-83
2023/04/14 11:11:27;;;;;;;;;;;13.10;50.90;;;11.78;50.70;100443.22;12256887;19;19915;-83
2023/04/14 11:15:53;;;;;;;;;;;13.10;50.40;;;11.92;50.67;100451.03;12255269;19;19919;-82
2023/04/14 11:19:56;;;;;;;;;;;13.10;51.00;;;11.93;50.60;100460.56;12255793;19;19911;-82
2023/04/14 11:23:59;;;;;;;;;;;13.10;50.70;;;11.82;50.64;100430.78;12252195;19;19919;-84
2023/04/14 11:28:02;;;;;;;;;;;13.10;50.20;;;11.90;50.62;100442.44;12252286;19;19926;-84
2023/04/14 11:32:05;;;;;;;;;;;13.10;50.40;;;11.84;50.55;100437.59;12256242;19;19943;-83
2023/04/14 11:36:08;;;;;;;;;;;13.10;50.80;;;11.81;50.79;100426.50;12253359;19;19947;-84
2023/04/14 11:40:11;;;;;;;;;;;13.10;50.70;;;11.64;50.73;100407.50;12255444;19;20253;-83
2023/04/14 11:44:18;;;;;;;;;;;13.20;51.10;;;11.83;50.82;100429.84;12252594;19;19914;-82
2023/04/14 11:48:19;;;;;;;;;;;13.10;50.60;;;11.95;50.72;100447.38;12251705;19;19919;-83
2023/04/14 11:52:21;;;;;;;;;;;13.20;51.00;;;11.82;50.95;100421.16;12252665;19;19931;-84
2023/04/14 11:56:23;;;;;;;;;;;13.20;52.10;;;11.93;50.73;100436.19;12252118;19;19982;-84
2023/04/14 12:00:26;;;;;;;;;;;13.20;51.10;;;11.95;50.76;100437.75;12252165;19;20337;-82
2023/04/14 12:04:30;;;;;;;;;;;13.20;51.50;;;11.94;50.78;100427.41;12249918;19;19918;-83
2023/04/14 12:08:31;;;;;;;;;;;13.30;51.30;;;11.94;50.73;100428.25;12244786;19;19918;-83
2023/04/14 12:12:33;;;;;;;;;;;13.20;50.70;;;11.82;50.80;100400.22;12249699;19;19942;-83
2023/04/14 12:16:34;;;;;;;;;;;13.30;51.30;;;11.99;50.80;100424.47;12249505;19;20333;-82
2023/04/14 12:21:00;;;;;;;;;;;13.20;51.50;;;11.93;50.95;100418.69;12251386;19;19919;-82
2023/04/14 12:25:11;;;;;;;;;;;13.20;51.00;;;12.00;51.09;100428.78;12247015;19;19953;-82
2023/04/14 12:29:13;;;;;;;;;;;13.30;51.20;;;11.89;50.92;100411.16;12247666;19;19921;-82
2023/04/14 12:33:14;;;;;;;;;;;13.30;51.10;;;12.04;50.91;100431.06;12249326;19;20277;-83
2023/04/14 12:37:16;;;;;;;;;;;13.20;50.80;;;12.03;50.93;100412.88;12251644;19;19919;-82
2023/04/14 12:41:21;;;;;;;;;;;13.30;51.60;;;11.73;51.13;100367.66;12250339;19;19921;-82
2023/04/14 12:45:23;;;;;;;;;;;13.20;51.20;;;11.93;50.99;100392.53;12249523;19;20344;-82
2023/04/14 12:49:52;;;;;;;;;;;13.50;51.30;;;12.06;51.03;100410.03;12249326;19;19915;-81
2023/04/14 12:54:04;;;;;;;;;;;13.30;51.30;;;12.00;51.13;100400.00;12247826;19;19922;-82
2023/04/14 12:58:06;;;;;;;;;;;13.20;51.20;;;11.82;51.04;100358.34;12248200;19;19910;-82
2023/04/14 13:02:07;;;;;;;;;;;13.20;51.00;;;12.02;51.00;100396.34;12248416;19;19936;-81
2023/04/14 13:06:10;;;;;;;;;;;13.30;51.10;;;12.07;51.22;100393.38;12245396;19;20269;-83
2023/04/14 13:10:12;;;;;;;;;;;13.30;51.10;;;11.99;51.21;100374.75;12247504;19;19945;-81
2023/04/14 13:14:13;;;;;;;;;;;13.30;50.90;;;12.10;51.11;100386.19;12248221;19;19978;-83
2023/04/14 13:18:15;;;;;;;;;;;13.30;50.90;;;12.03;51.26;100357.91;12242944;19;19915;-84
2023/04/14 13:22:17;;;;;;;;;;;13.30;51.10;;;12.08;51.18;100374.97;12248464;19;19919;-83
2023/04/14 13:26:18;;;;;;;;;;;13.40;51.60;;;11.91;51.24;100336.88;12248052;19;19915;-84
2023/04/14 13:30:19;;;;;;;;;;;13.40;51.70;;;12.14;51.34;100368.50;12250572;19;19935;-83
2023/04/14 13:34:21;;;;;;;;;;;13.40;51.50;;;12.13;51.19;100359.81;12249955;19;19914;-83
2023/04/14 13:38:22;;;;;;;;;;;13.40;51.10;;;12.09;51.29;100345.25;12243988;19;19918;-84
2023/04/14 13:42:23;;;;;;;;;;;13.40;52.10;;;12.15;51.29;100355.31;12247773;19;19966;-83
2023/04/14 13:46:25;;;;;;;;;;;13.50;52.20;;;12.16;51.32;100358.75;12245909;19;19923;-83
2023/04/14 13:50:27;;;;;;;;;;;13.40;51.40;;;12.17;51.46;100357.81;12248042;19;19915;-83
2023/04/14 13:54:28;;;;;;;;;;;13.40;51.90;;;12.13;51.23;100348.50;12245354;19;19930;-83
2023/04/14 13:58:30;;;;;;;;;;;13.40;51.60;;;12.19;51.41;100345.47;12244310;19;19919;-83
2023/04/14 14:02:32;;;;;;;;;;;13.50;51.40;;;12.23;51.42;100360.00;12248213;19;19922;-84
2023/04/14 14:06:34;;;;;;;;;;;13.40;52.00;;;12.17;51.55;100342.94;12245871;19;19930;-84
2023/04/14 14:10:36;;;;;;;;;;;13.40;51.90;;;12.20;51.37;100341.88;12246807;19;20408;-85
2023/04/14 14:14:37;;;;;;;;;;;13.40;51.70;;;11.92;51.28;100301.06;12248143;19;19918;-83
2023/04/14 14:18:40;;;;;;;;;;;13.40;51.80;;;12.22;51.44;100332.16;12242410;19;20326;-83
2023/04/14 14:22:41;;;;;;;;;;;13.50;51.80;;;12.19;51.46;100329.75;12245866;19;20245;-84
2023/04/14 14:26:43;;;;;;;;;;;13.40;52.00;;;11.93;51.46;100294.88;12243626;19;19922;-83
2023/04/14 14:30:44;;;;;;;;;;;13.40;51.90;;;11.99;51.47;100299.72;12255498;19;20357;-84
2023/04/14 14:34:46;;;;;;;;;;;13.50;51.90;;;12.16;51.44;100320.34;12256990;19;20033;-83
2023/04/14 14:38:48;;;;;;;;;;;13.40;53.00;;;12.20;51.61;100331.41;12255134;19;19911;-84
2023/04/14 14:42:51;;;;;;;;;;;13.40;51.90;;;12.23;51.55;100328.59;12256536;19;19943;-84
2023/04/14 14:46:53;;;;;;;;;;;13.40;52.10;;;12.12;51.43;100318.88;12255964;19;19934;-83
2023/04/14 14:50:54;;;;;;;;;;;13.50;52.30;;;12.14;51.58;100316.97;12256195;19;20390;-83
2023/04/14 14:54:56;;;;;;;;;;;13.40;52.40;;;12.18;51.54;100325.47;12254841;19;20305;-83
2023/04/14 14:58:57;;;;;;;;;;;13.40;52.10;;;12.04;51.53;100312.47;12252658;19;19915;-83
2023/04/14 15:02:59;;;;;;;;;;;13.30;51.90;;;12.11;51.60;100334.69;12254934;19;20326;-83
2023/04/14 15:07:00;;;;;;;;;;;13.30;52.30;;;11.99;51.81;100301.47;12255315;19;19926;-83
2023/04/14 15:11:01;;;;;;;;;;;13.30;52.20;;;12.12;51.71;100331.09;12253028;19;20341;-83
2023/04/14 15:15:05;;;;;;;;;;;13.30;51.70;;;12.09;51.78;100333.94;12256732;19;19929;-83
2023/04/14 15:19:06;;;;;;;;;;;13.30;52.50;;;12.07;51.72;100336.69;12252848;19;19923;-83
2023/04/14 15:23:07;;;;;;;;;;;13.30;52.20;;;12.07;51.72;100341.91;12256628;19;19911;-83
2023/04/14 15:27:09;;;;;;;;;;;13.30;52.40;;;12.05;51.80;100335.94;12254070;19;19919;-83
2023/04/14 15:31:10;;;;;;;;;;;13.30;52.10;;;12.06;51.92;100334.16;12254921;19;19921;-84
2023/04/14 15:35:12;;;;;;;;;;;13.30;52.00;;;12.12;51.87;100349.44;12254696;19;20377;-83
2023/04/14 15:39:13;;;;;;;;;;;13.30;51.70;;;12.14;51.69;100350.16;12248115;19;20333;-83
2023/04/14 15:43:17;;;;;;;;;;;13.30;51.90;;;12.12;51.92;100349.44;12253692;19;19914;-83
2023/04/14 15:47:18;;;;;;;;;;;13.30;51.80;;;12.13;51.82;100351.13;12250822;19;19911;-84
2023/04/14 15:51:20;;;;;;;;;;;13.30;52.10;;;12.08;51.77;100325.25;12255385;19;19911;-83
2023/04/14 15:55:21;;;;;;;;;;;13.40;52.10;;;12.20;51.86;100347.13;12244081;19;19922;-83
2023/04/14 15:59:23;;;;;;;;;;;13.40;52.00;;;12.10;51.72;100323.38;12250698;19;19922;-82
2023/04/14 16:03:25;;;;;;;;;;;13.40;52.10;;;11.87;51.93;100288.28;12249397;19;19982;-83
2023/04/14 16:07:27;;;;;;;;;;;13.40;51.70;;;12.19;51.88;100327.13;12223980;19;20373;-82
2023/04/14 16:11:29;;;;;;;;;;;13.30;51.80;;;12.20;51.89;100330.59;12247660;19;20275;-82
2023/04/14 16:15:30;;;;;;;;;;;13.40;51.80;;;12.12;51.90;100323.25;12249292;19;20322;-82
2023/04/14 16:19:31;;;;;;;;;;;13.40;51.60;;;11.87;51.95;100274.38;12242661;19;19926;-83
2023/04/14 16:23:33;;;;;;;;;;;13.40;51.60;;;12.20;51.85;100331.41;12247368;19;20597;-82
2023/04/14 16:27:34;;;;;;;;;;;13.40;51.60;;;12.23;51.92;100336.44;12247409;19;19931;-82
2023/04/14 16:31:36;;;;;;;;;;;13.40;51.60;;;12.25;51.94;100334.56;12243877;19;20484;-82
2023/04/14 16:35:41;;;;;;;;;;;13.50;51.70;;;12.27;51.93;100337.09;12239324;19;20365;-83
2023/04/14 16:39:43;;;;;;;;;;;13.50;51.40;;;12.28;52.02;100325.66;12236556;19;19923;-82
2023/04/14 16:43:46;;;;;;;;;;;13.50;51.50;;;12.26;51.94;100323.16;12247082;19;20336;-84
2023/04/14 16:47:48;;;;;;;;;;;13.50;51.30;;;12.28;52.08;100323.03;12233150;19;19939;-83
2023/04/14 16:51:49;;;;;;;;;;;13.60;51.40;;;12.09;51.92;100289.44;12245870;19;20265;-83
2023/04/14 16:55:50;;;;;;;;;;;13.60;51.40;;;12.11;52.18;100292.78;12249644;19;20249;-83
2023/04/14 16:59:52;;;;;;;;;;;13.60;51.30;;;12.24;52.11;100311.97;12247786;19;19929;-82
2023/04/14 17:03:54;;;;;;;;;;;13.60;51.50;;;12.31;52.10;100317.59;12247032;19;19936;-82
2023/04/14 17:07:55;;;;;;;;;;;13.60;51.40;;;12.40;51.97;100344.00;12242028;19;19914;-83
2023/04/14 17:11:56;;;;;;;;;;;13.60;51.30;;;12.37;52.11;100338.13;12248871;19;19926;-83
2023/04/14 17:15:58;;;;;;;;;;;13.80;51.40;;;12.38;52.12;100343.25;12247411;19;19944;-82
2023/04/14 17:19:59;;;;;;;;;;;13.60;51.70;;;12.30;52.17;100321.16;12248193;19;20374;-82
2023/04/14 17:24:02;;;;;;;;;;;13.80;51.60;;;12.30;52.22;100327.22;12246113;19;19923;-83
2023/04/14 17:28:04;;;;;;;;;;;13.60;51.50;;;12.28;52.21;100323.03;12245696;19;19922;-82
2023/04/14 17:32:07;;;;;;;;;;;13.60;51.30;;;12.26;52.05;100320.56;12246893;19;19926;-82
2023/04/14 17:36:11;;;;;;;;;;;13.50;51.40;;;12.09;52.29;100297.28;12244855;19;20001;-82
2023/04/14 17:40:14;;;;;;;;;;;13.60;51.50;;;12.35;52.19;100319.06;12248388;19;19952;-82
2023/04/14 17:44:16;;;;;;;;;;;13.50;51.60;;;12.30;52.25;100331.63;12246573;19;19914;-82
2023/04/14 17:48:18;;;;;;;;;;;13.50;51.70;;;12.30;52.34;100324.63;12244044;19;19919;-82
2023/04/14 17:52:20;;;;;;;;;;;13.50;51.50;;;12.31;52.10;100336.78;12246787;19;19935;-83
2023/04/14 17:56:23;;;;;;;;;;;13.60;51.50;;;12.31;52.29;100330.69;12243073;19;20340;-82
2023/04/14 18:00:26;;;;;;;;;;;13.50;51.50;;;12.35;52.26;100335.63;12247114;19;19918;-82
2023/04/14 18:04:27;;;;;;;;;;;13.60;51.40;;;12.28;52.27;100320.44;12252333;19;19920;-83
2023/04/14 18:08:28;;;;;;;;;;;13.60;51.50;;;12.31;52.42;100331.53;12253801;19;19911;-82
2023/04/14 18:12:30;;;;;;;;;;;13.50;51.50;;;12.37;52.34;100338.13;12258147;19;19919;-83